createdAt,value
2022-11-29T00:01:40.405Z,21.30
2022-11-29T00:04:06.897Z,20.45
2022-11-29T00:06:33.265Z,21.30
2022-11-29T00:08:59.612Z,22.05
2022-11-29T00:11:44.879Z,20.75
2022-11-29T00:14:11.188Z,21.65
2022-11-29T00:16:37.575Z,20.45
2022-11-29T00:19:03.904Z,21.70
2022-11-29T00:21:30.271Z,21.62
2022-11-29T00:23:56.686Z,22.73
2022-11-29T00:26:23.013Z,22.52
2022-11-29T00:28:49.336Z,22.23
2022-11-29T00:31:15.796Z,21.45
2022-11-29T00:33:42.186Z,22.15
2022-11-29T00:36:08.493Z,21.33
2022-11-29T00:38:34.844Z,21.37
2022-11-29T00:41:01.162Z,22.50
2022-11-29T00:43:27.547Z,21.40
2022-11-29T00:45:53.903Z,22.05
2022-11-29T00:48:20.267Z,22.30
2022-11-29T00:50:46.585Z,22.98
2022-11-29T00:53:12.909Z,22.35
2022-11-29T00:55:39.219Z,22.15
2022-11-29T00:58:06.303Z,22.73
2022-11-29T01:00:32.617Z,21.58
2022-11-29T01:02:58.927Z,23.10
2022-11-29T01:05:25.282Z,24.52
2022-11-29T01:07:51.694Z,22.87
2022-11-29T01:10:18.044Z,22.25
2022-11-29T01:12:44.402Z,23.25
2022-11-29T01:15:10.719Z,23.75
2022-11-29T01:17:37.025Z,22.92
2022-11-29T01:20:03.475Z,22.48
2022-11-29T01:22:29.801Z,22.33
2022-11-29T01:24:56.110Z,23.00
2022-11-29T01:27:22.418Z,23.50
2022-11-29T01:29:48.720Z,23.42
2022-11-29T01:32:15.043Z,22.67
2022-11-29T01:34:41.589Z,23.67
2022-11-29T01:37:08.027Z,23.73
2022-11-29T01:39:34.352Z,22.73
2022-11-29T01:42:01.074Z,22.92
2022-11-29T01:44:28.517Z,22.67
2022-11-29T01:46:54.838Z,24.60
2022-11-29T01:49:21.169Z,24.27
2022-11-29T01:51:47.478Z,22.80
2022-11-29T01:54:13.793Z,23.95
2022-11-29T01:56:40.135Z,22.48
2022-11-29T01:59:06.473Z,22.17
2022-11-29T02:01:34.722Z,25.15
2022-11-29T02:04:01.073Z,23.73
2022-11-29T02:06:27.382Z,24.58
2022-11-29T02:08:53.710Z,24.52
2022-11-29T02:11:20.030Z,24.40
2022-11-29T02:13:46.349Z,24.08
2022-11-29T02:16:12.716Z,24.42
2022-11-29T02:18:39.057Z,24.40
2022-11-29T02:21:05.376Z,25.67
2022-11-29T02:23:31.749Z,23.75
2022-11-29T02:25:58.081Z,23.52
2022-11-29T02:28:24.399Z,25.02
2022-11-29T02:30:50.758Z,25.20
2022-11-29T02:33:17.161Z,23.90
2022-11-29T02:35:43.525Z,24.30
2022-11-29T02:38:09.829Z,25.67
2022-11-29T02:40:36.160Z,24.37
2022-11-29T02:43:02.474Z,25.90
2022-11-29T02:45:28.776Z,25.05
2022-11-29T02:47:55.089Z,25.55
2022-11-29T02:50:21.444Z,25.25
2022-11-29T02:52:47.790Z,24.17
2022-11-29T02:55:14.148Z,25.27
2022-11-29T02:57:40.468Z,25.98
2022-11-29T03:00:07.220Z,25.52
2022-11-29T03:02:33.633Z,25.20
2022-11-29T03:04:59.978Z,25.83
2022-11-29T03:07:26.352Z,25.73
2022-11-29T03:09:52.690Z,24.40
2022-11-29T03:12:18.993Z,26.77
2022-11-29T03:14:45.556Z,25.83
2022-11-29T03:17:12.042Z,25.00
2022-11-29T03:19:38.365Z,25.12
2022-11-29T03:22:04.945Z,26.70
2022-11-29T03:24:31.262Z,26.12
2022-11-29T03:26:57.569Z,25.73
2022-11-29T03:29:23.874Z,27.55
2022-11-29T03:31:50.183Z,25.37
2022-11-29T03:34:16.521Z,24.37
2022-11-29T03:36:42.817Z,24.63
2022-11-29T03:39:09.152Z,26.20
2022-11-29T03:41:35.458Z,25.88
2022-11-29T03:44:01.787Z,24.75
2022-11-29T03:46:28.131Z,27.05
2022-11-29T03:48:54.615Z,25.98
2022-11-29T03:51:20.918Z,26.45
2022-11-29T03:53:47.250Z,24.63
2022-11-29T03:56:13.556Z,24.58
2022-11-29T03:58:39.890Z,24.55
2022-11-29T04:01:06.320Z,25.50
2022-11-29T04:03:32.706Z,25.70
2022-11-29T04:05:59.034Z,24.55
2022-11-29T04:08:25.367Z,24.65
2022-11-29T04:10:51.671Z,25.85
2022-11-29T04:13:17.985Z,25.75
2022-11-29T04:15:44.341Z,25.12
2022-11-29T04:18:10.651Z,26.62
2022-11-29T04:20:40.341Z,24.48
2022-11-29T04:23:09.373Z,23.25
2022-11-29T04:25:35.699Z,24.25
2022-11-29T04:28:02.007Z,23.67
2022-11-29T04:30:28.317Z,23.95
2022-11-29T04:32:54.636Z,24.12
2022-11-29T04:35:20.999Z,26.25
2022-11-29T04:37:47.337Z,23.77
2022-11-29T04:40:13.663Z,25.35
2022-11-29T04:42:39.973Z,24.40
2022-11-29T04:45:06.316Z,24.85
2022-11-29T04:47:32.624Z,23.70
2022-11-29T04:49:58.957Z,24.30
2022-11-29T04:52:25.297Z,25.80
2022-11-29T04:54:51.605Z,25.00
2022-11-29T04:57:17.935Z,24.75
2022-11-29T04:59:44.354Z,25.05
2022-11-29T05:02:10.664Z,24.52
2022-11-29T05:04:37.259Z,24.27
2022-11-29T05:07:03.814Z,24.37
2022-11-29T05:09:30.145Z,24.65
2022-11-29T05:11:56.531Z,23.55
2022-11-29T05:14:22.839Z,24.20
2022-11-29T05:16:50.843Z,24.05
2022-11-29T05:19:17.353Z,24.67
2022-11-29T05:21:43.683Z,23.17
2022-11-29T05:24:09.992Z,22.87
2022-11-29T05:26:36.319Z,23.42
2022-11-29T05:29:02.699Z,23.70
2022-11-29T05:31:29.307Z,23.73
2022-11-29T05:33:55.638Z,22.60
2022-11-29T05:36:21.951Z,24.25
2022-11-29T05:38:49.210Z,24.55
2022-11-29T05:41:15.551Z,24.58
2022-11-29T05:43:41.862Z,23.40
2022-11-29T05:46:08.243Z,22.13
2022-11-29T05:48:34.616Z,21.87
2022-11-29T05:51:00.924Z,22.33
2022-11-29T05:53:27.243Z,22.55
2022-11-29T05:55:53.567Z,22.77
2022-11-29T05:58:19.934Z,22.58
2022-11-29T06:00:46.393Z,22.42
2022-11-29T06:03:12.716Z,22.55
2022-11-29T06:05:39.100Z,21.45
2022-11-29T06:08:05.509Z,22.42
2022-11-29T06:10:34.836Z,21.30
2022-11-29T06:13:01.149Z,21.90
2022-11-29T06:15:28.085Z,21.27
2022-11-29T06:17:55.269Z,23.23
2022-11-29T06:20:21.613Z,21.67
2022-11-29T06:22:49.036Z,21.58
2022-11-29T06:25:17.198Z,20.23
2022-11-29T06:27:44.062Z,20.55
2022-11-29T06:30:10.358Z,21.27
2022-11-29T06:32:37.509Z,21.95
2022-11-29T06:35:03.882Z,22.30
2022-11-29T06:37:30.214Z,21.50
2022-11-29T06:39:56.602Z,21.95
2022-11-29T06:42:22.952Z,21.25
2022-11-29T06:44:49.254Z,22.15
2022-11-29T06:47:15.562Z,19.90
2022-11-29T06:49:41.871Z,21.50
2022-11-29T06:52:08.182Z,22.08
2022-11-29T06:54:34.557Z,22.75
2022-11-29T06:57:00.871Z,21.08
2022-11-29T06:59:27.198Z,20.90
2022-11-29T07:01:53.585Z,19.62
2022-11-29T07:04:19.981Z,19.52
2022-11-29T07:06:46.324Z,19.15
2022-11-29T07:09:13.328Z,21.05
2022-11-29T07:11:39.775Z,21.30
2022-11-29T07:14:06.170Z,19.90
2022-11-29T07:16:34.861Z,20.58
2022-11-29T07:19:01.356Z,20.17
2022-11-29T07:21:27.689Z,20.40
2022-11-29T07:23:54.002Z,20.90
2022-11-29T07:26:21.811Z,19.77
2022-11-29T07:28:48.135Z,19.50
2022-11-29T07:31:14.490Z,19.48
2022-11-29T07:33:42.085Z,20.73
2022-11-29T07:36:08.415Z,19.23
2022-11-29T07:38:34.743Z,20.88
2022-11-29T07:41:01.055Z,20.17
2022-11-29T07:43:27.383Z,20.60
2022-11-29T07:45:54.102Z,20.52
2022-11-29T07:48:20.430Z,19.70
2022-11-29T07:50:46.818Z,19.80
2022-11-29T07:53:13.169Z,19.92
2022-11-29T07:55:39.488Z,21.05
2022-11-29T07:58:05.845Z,20.50
2022-11-29T08:00:35.800Z,21.27
2022-11-29T08:03:02.157Z,21.55
2022-11-29T08:05:28.503Z,19.95
2022-11-29T08:07:56.081Z,21.62
2022-11-29T08:10:22.489Z,19.50
2022-11-29T08:12:48.882Z,19.95
2022-11-29T08:15:15.209Z,20.70
2022-11-29T08:17:41.567Z,19.75
2022-11-29T08:20:07.994Z,20.40
2022-11-29T08:22:34.397Z,18.65
2022-11-29T08:25:01.504Z,20.50
2022-11-29T08:27:27.835Z,18.83
2022-11-29T08:29:54.159Z,18.45
2022-11-29T08:32:20.500Z,19.30
2022-11-29T08:34:47.062Z,17.33
2022-11-29T08:37:13.581Z,19.35
2022-11-29T08:39:39.901Z,18.30
2022-11-29T08:42:06.220Z,18.67
2022-11-29T08:44:32.548Z,18.95
2022-11-29T08:47:17.642Z,17.30
2022-11-29T08:50:02.197Z,16.50
2022-11-29T08:52:47.246Z,16.77
2022-11-29T08:55:13.572Z,16.83
2022-11-29T08:57:41.080Z,17.73
2022-11-29T09:00:07.710Z,17.58
2022-11-29T09:02:34.096Z,16.67
2022-11-29T09:05:00.452Z,14.15
2022-11-29T09:07:26.898Z,17.70
2022-11-29T09:09:53.244Z,16.23
2022-11-29T09:12:19.609Z,15.90
2022-11-29T09:14:46.296Z,16.27
2022-11-29T09:17:12.787Z,17.12
2022-11-29T09:19:39.107Z,16.20
2022-11-29T09:22:05.436Z,15.23
2022-11-29T09:24:31.777Z,15.95
2022-11-29T09:26:58.102Z,15.52
2022-11-29T09:29:24.482Z,15.25
2022-11-29T09:31:50.892Z,14.85
2022-11-29T09:34:18.489Z,14.98
2022-11-29T09:36:44.833Z,15.10
2022-11-29T09:39:12.518Z,14.90
2022-11-29T09:41:40.292Z,16.17
2022-11-29T09:44:08.309Z,14.73
2022-11-29T09:46:34.636Z,13.48
2022-11-29T09:49:00.954Z,15.75
2022-11-29T09:51:27.305Z,17.17
2022-11-29T09:53:53.685Z,15.18
2022-11-29T09:56:21.732Z,15.88
2022-11-29T09:58:48.070Z,14.85
2022-11-29T10:01:14.489Z,14.60
2022-11-29T10:03:40.846Z,17.10
2022-11-29T10:06:07.181Z,16.80
2022-11-29T10:08:33.866Z,16.73
2022-11-29T10:11:00.302Z,15.15
2022-11-29T10:13:26.619Z,15.65
2022-11-29T10:15:52.941Z,15.75
2022-11-29T10:18:19.329Z,16.55
2022-11-29T10:20:49.007Z,16.12
2022-11-29T10:23:16.001Z,15.95
2022-11-29T10:25:42.367Z,15.63
2022-11-29T10:28:08.694Z,15.45
2022-11-29T10:30:35.093Z,14.70
2022-11-29T10:33:02.435Z,15.85
2022-11-29T10:35:29.606Z,16.30
2022-11-29T10:38:28.578Z,17.33
2022-11-29T10:40:42.245Z,15.65
2022-11-29T10:43:09.142Z,17.27
2022-11-29T10:45:35.538Z,17.33
2022-11-29T10:48:01.871Z,16.85
2022-11-29T10:50:28.206Z,16.75
2022-11-29T10:52:59.785Z,16.67
2022-11-29T10:55:26.424Z,17.90
2022-11-29T10:57:52.768Z,18.60
2022-11-29T11:00:19.116Z,18.10
2022-11-29T11:02:45.488Z,16.92
2022-11-29T11:05:11.874Z,17.15
2022-11-29T11:07:38.414Z,16.77
2022-11-29T11:10:04.758Z,18.15
2022-11-29T11:12:31.086Z,17.10
2022-11-29T11:14:57.428Z,18.17
2022-11-29T11:17:26.013Z,17.20
2022-11-29T11:19:52.436Z,18.65
2022-11-29T11:22:18.790Z,18.50
2022-11-29T11:24:45.426Z,17.92
2022-11-29T11:27:11.882Z,18.73
2022-11-29T11:29:38.286Z,19.10
2022-11-29T11:32:04.619Z,19.58
2022-11-29T11:34:31.807Z,19.77
2022-11-29T11:36:58.135Z,18.98
2022-11-29T11:39:24.533Z,18.55
2022-11-29T11:42:09.894Z,19.05
2022-11-29T11:44:52.323Z,18.95
2022-11-29T11:47:18.816Z,19.12
2022-11-29T11:49:45.150Z,18.10
2022-11-29T11:52:11.482Z,19.95
2022-11-29T11:54:37.854Z,19.40
2022-11-29T11:57:04.161Z,20.35
2022-11-29T11:59:30.492Z,19.17
2022-11-29T12:01:56.821Z,19.15
2022-11-29T12:04:23.261Z,18.67
2022-11-29T12:06:49.988Z,18.33
2022-11-29T12:09:18.823Z,19.62
2022-11-29T12:11:45.165Z,17.98
2022-11-29T12:14:11.496Z,18.17
2022-11-29T12:16:37.879Z,18.98
2022-11-29T12:19:04.363Z,18.23
2022-11-29T12:21:30.700Z,18.20
2022-11-29T12:23:57.034Z,17.65
2022-11-29T12:26:55.181Z,18.83
2022-11-29T12:29:09.705Z,17.58
2022-11-29T12:31:36.094Z,19.02
2022-11-29T12:34:02.451Z,19.08
2022-11-29T12:36:28.849Z,15.70
2022-11-29T12:38:55.247Z,19.25
2022-11-29T12:41:21.576Z,19.45
2022-11-29T12:43:47.895Z,19.67
2022-11-29T12:46:14.285Z,19.02
2022-11-29T12:48:40.627Z,17.87
2022-11-29T12:51:07.027Z,20.48
2022-11-29T12:53:33.354Z,18.60
2022-11-29T12:55:59.683Z,18.95
2022-11-29T12:58:26.046Z,19.40
2022-11-29T13:00:52.390Z,19.35
2022-11-29T13:03:18.708Z,19.00
2022-11-29T13:05:45.096Z,19.35
2022-11-29T13:08:11.410Z,19.12
2022-11-29T13:10:37.728Z,19.48
2022-11-29T13:13:04.193Z,19.87
2022-11-29T13:15:30.531Z,18.80
2022-11-29T13:17:56.890Z,20.00
2022-11-29T13:20:23.236Z,20.58
2022-11-29T13:22:49.616Z,20.42
2022-11-29T13:25:15.977Z,21.48
2022-11-29T13:27:42.398Z,20.05
2022-11-29T13:30:08.772Z,20.42
2022-11-29T13:32:35.256Z,19.98
2022-11-29T13:35:01.622Z,22.73
2022-11-29T13:37:28.020Z,21.83
2022-11-29T13:39:54.410Z,20.62
2022-11-29T13:42:20.728Z,22.20
2022-11-29T13:44:47.355Z,22.45
2022-11-29T13:47:13.946Z,22.73
2022-11-29T13:49:40.280Z,21.95
2022-11-29T13:52:06.646Z,20.60
2022-11-29T13:54:33.306Z,22.50
2022-11-29T13:56:59.617Z,20.62
2022-11-29T13:59:25.926Z,21.33
2022-11-29T14:01:53.480Z,21.75
2022-11-29T14:04:19.896Z,22.02
2022-11-29T14:06:48.285Z,14.90
2022-11-29T14:09:19.600Z,21.83
2022-11-29T14:11:46.317Z,22.17
2022-11-29T14:14:12.618Z,21.67
2022-11-29T14:16:38.951Z,20.95
2022-11-29T14:19:05.288Z,21.83
2022-11-29T14:21:31.630Z,21.65
2022-11-29T14:23:57.941Z,21.50
2022-11-29T14:26:28.228Z,21.55
2022-11-29T14:28:55.310Z,19.75
2022-11-29T14:31:21.662Z,22.37
2022-11-29T14:33:48.030Z,21.70
2022-11-29T14:36:14.400Z,22.17
2022-11-29T14:38:40.720Z,21.05
2022-11-29T14:41:07.075Z,22.95
2022-11-29T14:43:33.458Z,23.02
2022-11-29T14:45:59.782Z,21.23
2022-11-29T14:48:26.103Z,22.55
2022-11-29T14:50:52.410Z,23.05
2022-11-29T14:53:18.759Z,22.67
2022-11-29T14:55:45.084Z,23.38
2022-11-29T14:58:11.416Z,21.55
2022-11-29T15:00:37.729Z,19.95
2022-11-29T15:03:05.293Z,22.40
2022-11-29T15:05:31.606Z,22.73
2022-11-29T15:07:57.977Z,20.98
2022-11-29T15:10:24.332Z,22.15
2022-11-29T15:12:50.813Z,23.58
2022-11-29T15:15:17.177Z,22.02
2022-11-29T15:17:43.650Z,23.35
2022-11-29T15:20:10.010Z,23.42
2022-11-29T15:22:36.351Z,24.73
2022-11-29T15:25:02.687Z,20.90
2022-11-29T15:27:29.060Z,24.17
2022-11-29T15:29:55.472Z,24.10
2022-11-29T15:32:22.173Z,27.48
2022-11-29T15:37:21.964Z,23.87
2022-11-29T15:39:48.343Z,26.48
2022-11-29T15:42:14.654Z,25.33
2022-11-29T15:44:40.981Z,24.00
2022-11-29T15:47:07.295Z,25.98
2022-11-29T15:49:33.624Z,25.73
2022-11-29T15:52:00.120Z,25.33
2022-11-29T15:54:26.434Z,25.08
2022-11-29T15:56:52.761Z,24.87
2022-11-29T15:59:19.130Z,26.40
2022-11-29T16:01:45.544Z,26.48
2022-11-29T16:04:11.956Z,28.55
2022-11-29T16:06:38.278Z,24.80
2022-11-29T16:09:04.607Z,26.27
2022-11-29T16:11:31.037Z,26.05
2022-11-29T16:13:57.352Z,27.37
2022-11-29T16:16:23.760Z,24.58
2022-11-29T16:18:50.118Z,27.08
2022-11-29T16:21:16.560Z,26.25
2022-11-29T16:23:43.427Z,25.92
2022-11-29T16:26:09.915Z,28.27
2022-11-29T16:28:36.234Z,26.35
2022-11-29T16:31:02.554Z,27.83
2022-11-29T16:33:28.918Z,26.20
2022-11-29T16:35:55.238Z,25.23
2022-11-29T16:38:21.641Z,26.73
2022-11-29T16:40:47.951Z,25.65
2022-11-29T16:43:14.253Z,26.60
2022-11-29T16:45:41.661Z,26.83
2022-11-29T16:48:08.094Z,24.83
2022-11-29T16:50:34.999Z,23.83
2022-11-29T16:53:01.310Z,26.12
2022-11-29T16:55:27.703Z,24.20
2022-11-29T16:57:54.054Z,24.50
2022-11-29T17:00:20.366Z,22.35
2022-11-29T17:02:46.781Z,29.60
2022-11-29T17:05:13.139Z,25.92
2022-11-29T17:07:39.739Z,23.95
2022-11-29T17:10:06.105Z,22.05
2022-11-29T17:12:32.410Z,24.50
2022-11-29T17:14:59.984Z,22.23
2022-11-29T17:17:26.297Z,23.65
2022-11-29T17:19:52.675Z,23.60
2022-11-29T17:22:19.016Z,24.45
2022-11-29T17:24:48.254Z,23.20
2022-11-29T17:27:15.039Z,23.30
2022-11-29T17:29:41.409Z,23.50
2022-11-29T17:32:07.795Z,23.90
2022-11-29T17:34:34.684Z,24.40
2022-11-29T17:37:01.084Z,22.87
2022-11-29T17:39:27.462Z,23.20
2022-11-29T17:41:53.766Z,23.80
2022-11-29T17:44:20.122Z,24.27
2022-11-29T17:46:46.450Z,23.98
2022-11-29T17:49:12.830Z,24.35
2022-11-29T17:51:55.471Z,23.23
2022-11-29T17:54:21.904Z,24.67
2022-11-29T17:56:48.277Z,23.45
2022-11-29T17:59:14.610Z,23.62
2022-11-29T18:01:41.047Z,22.92
2022-11-29T18:04:08.476Z,23.95
2022-11-29T18:06:34.864Z,25.35
2022-11-29T18:09:01.753Z,23.02
2022-11-29T18:11:28.069Z,23.42
2022-11-29T18:13:54.421Z,23.27
2022-11-29T18:16:20.854Z,23.55
2022-11-29T18:18:47.203Z,23.85
2022-11-29T18:21:13.534Z,24.80
2022-11-29T18:23:39.912Z,23.00
2022-11-29T18:26:06.227Z,24.35
2022-11-29T18:28:32.615Z,23.92
2022-11-29T18:30:58.982Z,23.38
2022-11-29T18:33:25.297Z,24.23
2022-11-29T18:35:51.631Z,25.55
2022-11-29T18:38:17.948Z,25.00
2022-11-29T18:40:45.730Z,25.02
2022-11-29T18:43:12.395Z,24.98
2022-11-29T18:45:38.725Z,25.05
2022-11-29T18:48:05.191Z,24.95
2022-11-29T18:50:31.516Z,25.83
2022-11-29T18:52:58.480Z,25.67
2022-11-29T18:55:24.782Z,28.08
2022-11-29T18:57:51.096Z,26.95
2022-11-29T19:00:17.413Z,26.42
2022-11-29T19:02:43.788Z,25.88
2022-11-29T19:05:10.128Z,25.98
2022-11-29T19:07:36.486Z,26.37
2022-11-29T19:10:02.869Z,26.50
2022-11-29T19:12:30.582Z,25.37
2022-11-29T19:14:56.932Z,27.05
2022-11-29T19:17:23.295Z,26.02
2022-11-29T19:19:49.603Z,27.73
2022-11-29T19:22:15.972Z,27.10
2022-11-29T19:24:42.315Z,25.70
2022-11-29T19:27:08.644Z,26.70
2022-11-29T19:29:39.465Z,26.15
2022-11-29T19:32:06.891Z,27.65
2022-11-29T19:34:33.259Z,27.95
2022-11-29T19:36:59.591Z,26.90
2022-11-29T19:39:25.906Z,26.85
2022-11-29T19:41:53.023Z,26.55
2022-11-29T19:44:19.328Z,27.20
2022-11-29T19:46:48.923Z,28.77
2022-11-29T19:49:15.294Z,26.42
2022-11-29T19:51:41.641Z,27.67
2022-11-29T19:54:07.978Z,27.92
2022-11-29T19:56:34.409Z,26.60
2022-11-29T19:59:00.838Z,26.58
2022-11-29T20:01:34.638Z,27.33
2022-11-29T20:04:07.578Z,26.45
2022-11-29T20:06:33.952Z,28.90
2022-11-29T20:09:00.315Z,28.62
2022-11-29T20:11:26.787Z,28.00
2022-11-29T20:13:54.523Z,26.42
2022-11-29T20:16:22.025Z,27.73
2022-11-29T20:18:51.129Z,28.25
2022-11-29T20:21:17.746Z,27.65
2022-11-29T20:23:44.144Z,27.85
2022-11-29T20:26:10.580Z,26.98
2022-11-29T20:28:36.937Z,27.42
2022-11-29T20:31:03.324Z,26.62
2022-11-29T20:33:29.690Z,27.85
2022-11-29T20:35:55.998Z,28.12
2022-11-29T20:38:22.319Z,27.08
2022-11-29T20:40:48.641Z,28.33
2022-11-29T20:43:14.987Z,26.85
2022-11-29T20:45:41.294Z,27.42
2022-11-29T20:48:11.299Z,25.42
2022-11-29T20:50:37.655Z,26.87
2022-11-29T20:53:04.157Z,26.52
2022-11-29T20:55:32.514Z,26.08
2022-11-29T20:57:58.827Z,25.40
2022-11-29T21:00:25.173Z,25.48
2022-11-29T21:02:51.531Z,25.23
2022-11-29T21:05:17.864Z,24.12
2022-11-29T21:07:45.824Z,25.27
2022-11-29T21:10:12.222Z,25.83
2022-11-29T21:12:38.863Z,24.52
2022-11-29T21:15:05.176Z,26.30
2022-11-29T21:17:33.722Z,24.95
2022-11-29T21:20:00.345Z,25.25
2022-11-29T21:22:26.741Z,25.23
2022-11-29T21:24:53.084Z,24.45
2022-11-29T21:27:19.426Z,23.70
2022-11-29T21:29:45.809Z,23.65
2022-11-29T21:32:16.366Z,23.58
2022-11-29T21:34:45.841Z,24.33
2022-11-29T21:37:12.750Z,23.62
2022-11-29T21:39:39.090Z,23.60
2022-11-29T21:42:05.457Z,25.02
2022-11-29T21:44:31.791Z,24.05
2022-11-29T21:46:58.134Z,23.17
2022-11-29T21:49:26.521Z,22.95
2022-11-29T21:51:52.904Z,22.00
2022-11-29T21:54:19.241Z,22.95
2022-11-29T21:56:45.646Z,23.12
2022-11-29T21:59:12.112Z,24.12
2022-11-29T22:01:38.675Z,22.48
2022-11-29T22:04:05.206Z,23.33
2022-11-29T22:06:31.525Z,23.15
2022-11-29T22:08:58.219Z,22.85
2022-11-29T22:11:31.128Z,22.02
2022-11-29T22:14:16.333Z,22.77
2022-11-29T22:16:42.678Z,22.85
2022-11-29T22:19:10.166Z,21.92
2022-11-29T22:21:36.502Z,22.02
2022-11-29T22:24:02.947Z,22.52
2022-11-29T22:26:29.320Z,22.95
2022-11-29T22:28:55.647Z,22.42
2022-11-29T22:31:21.994Z,22.42
2022-11-29T22:33:48.376Z,22.02
2022-11-29T22:36:14.689Z,20.92
2022-11-29T22:38:41.018Z,23.40
2022-11-29T22:41:07.339Z,21.15
2022-11-29T22:43:33.664Z,21.60
2022-11-29T22:45:59.978Z,21.70
2022-11-29T22:48:26.306Z,22.83
2022-11-29T22:50:52.636Z,22.70
2022-11-29T22:53:18.956Z,22.55
2022-11-29T22:55:45.331Z,21.60
2022-11-29T22:58:11.636Z,23.85
2022-11-29T23:00:44.058Z,22.00
2022-11-29T23:03:10.566Z,22.73
2022-11-29T23:05:36.950Z,22.40
2022-11-29T23:08:03.252Z,22.25
2022-11-29T23:10:29.581Z,20.60
2022-11-29T23:12:55.906Z,22.62
2022-11-29T23:15:22.219Z,22.08
2022-11-29T23:17:48.536Z,21.80
2022-11-29T23:20:14.996Z,22.55
2022-11-29T23:22:41.320Z,21.75
2022-11-29T23:25:07.636Z,23.65
2022-11-29T23:27:33.963Z,21.75
2022-11-29T23:30:00.298Z,21.17
2022-11-29T23:32:26.618Z,22.13
2022-11-29T23:34:54.474Z,21.45
2022-11-29T23:37:20.793Z,22.27
2022-11-29T23:39:47.100Z,21.83
2022-11-29T23:42:13.411Z,21.95
2022-11-29T23:44:39.733Z,21.70
2022-11-29T23:47:06.045Z,22.20
2022-11-29T23:49:35.352Z,20.70
2022-11-29T23:52:01.939Z,21.67
2022-11-29T23:54:28.271Z,21.20
2022-11-29T23:56:54.600Z,21.50
2022-11-29T23:59:20.924Z,20.95
